Time;durP1;ratioP1;P1;durP2;ratioP2;P2;SDS_P1;SDS_P2;PMS_P1;PMS_P2;Temp;Humidity;BMP_temperature;BMP_pressure;BME280_temperature;BME280_humidity;BME280_pressure;Samples;Min_cycle;Max_cycle;Signal;HPM_P1;HPM_P2
2021/11/07 00:02:24;;;;;;;6.45;3.40;;;10.60;99.90;;;;;;5071663;28;20028;-57
2021/11/07 00:04:59;;;;;;;11.23;3.70;;;10.70;99.90;;;;;;5070437;28;20385;-57
2021/11/07 00:07:34;;;;;;;6.63;2.83;;;10.70;99.90;;;;;;5055418;28;20029;-56
2021/11/07 00:10:06;;;;;;;4.38;2.60;;;10.70;99.90;;;;;;5071603;28;20024;-59
2021/11/07 00:12:38;;;;;;;7.63;3.47;;;10.70;99.90;;;;;;5065271;28;20048;-57
2021/11/07 00:15:05;;;;;;;5.78;3.13;;;10.70;99.90;;;;;;5062424;28;20032;-57
2021/11/07 00:17:33;;;;;;;7.93;3.67;;;10.70;99.90;;;;;;5069601;28;20024;-58
2021/11/07 00:20:09;;;;;;;5.95;3.30;;;10.70;99.90;;;;;;5066302;28;20409;-59
2021/11/07 00:27:54;;;;;;;11.82;3.00;;;10.70;99.90;;;;;;5066966;28;20032;-56
2021/11/07 00:33:03;;;;;;;8.02;3.22;;;10.70;99.90;;;;;;5072661;28;20033;-57
2021/11/07 00:37:59;;;;;;;6.88;3.03;;;10.70;99.90;;;;;;5073006;28;20035;-58
2021/11/07 00:43:25;;;;;;;6.82;2.83;;;10.70;99.90;;;;;;5068327;28;20040;-58
2021/11/07 00:51:26;;;;;;;6.25;2.45;;;10.80;99.90;;;;;;5072447;28;20388;-58
2021/11/07 00:54:02;;;;;;;;;;;10.80;99.90;;;;;;5072075;28;20020;-60
2021/11/07 00:56:35;;;;;;;4.43;2.10;;;10.80;99.90;;;;;;5071495;28;19977;-57
2021/11/07 01:01:48;;;;;;;;;;;10.80;99.90;;;;;;5066991;28;20021;-59
2021/11/07 01:04:15;;;;;;;5.45;2.45;;;10.80;99.90;;;;;;5071004;28;19934;-58
2021/11/07 01:06:41;;;;;;;6.30;2.30;;;10.80;99.90;;;;;;5070721;28;20030;-58
2021/11/07 01:09:08;;;;;;;5.18;2.53;;;10.80;99.90;;;;;;5066930;28;20113;-57
2021/11/07 01:11:34;;;;;;;7.22;2.97;;;10.80;99.90;;;;;;5071325;28;20486;-58
2021/11/07 01:14:01;;;;;;;14.15;4.22;;;10.80;99.90;;;;;;5069715;28;20114;-57
2021/11/07 01:16:27;;;;;;;11.20;3.83;;;10.90;99.90;;;;;;5071117;28;20024;-57
2021/11/07 01:18:53;;;;;;;8.25;2.90;;;10.90;99.90;;;;;;5065143;28;20035;-57
2021/11/07 01:21:19;;;;;;;9.52;3.80;;;10.90;99.90;;;;;;5069313;28;20032;-56
2021/11/07 01:23:55;;;;;;;10.10;3.78;;;10.90;99.90;;;;;;5066828;28;20031;-56
2021/11/07 01:26:28;;;;;;;7.35;3.70;;;10.80;99.90;;;;;;5069339;28;20402;-54
2021/11/07 01:28:59;;;;;;;7.95;4.10;;;10.80;99.90;;;;;;5071682;28;20436;-56
2021/11/07 01:31:26;;;;;;;8.45;4.30;;;10.80;99.90;;;;;;5071112;28;20279;-57
2021/11/07 01:33:54;;;;;;;11.95;4.18;;;10.80;99.90;;;;;;5071307;28;20025;-58
2021/11/07 01:38:50;;;;;;;5.82;3.55;;;10.60;99.90;;;;;;5067579;28;20078;-55
2021/11/07 01:41:23;;;;;;;8.60;3.63;;;10.50;99.90;;;;;;5069827;28;20548;-56
2021/11/07 01:43:50;;;;;;;27.63;4.25;;;10.40;99.90;;;;;;5066843;28;20115;-54
2021/11/07 01:46:27;;;;;;;12.70;3.00;;;10.40;99.90;;;;;;5068903;28;20426;-55
2021/11/07 01:51:23;;;;;;;7.43;3.00;;;10.40;99.90;;;;;;5068442;28;20029;-55
2021/11/07 01:53:52;;;;;;;7.60;2.75;;;10.50;99.90;;;;;;5070132;28;20021;-57
2021/11/07 01:56:17;;;;;;;4.88;2.40;;;10.50;99.90;;;;;;5065488;28;20028;-56
2021/11/07 01:58:46;;;;;;;7.85;2.47;;;10.60;99.90;;;;;;5069067;28;20409;-58
2021/11/07 02:01:11;;;;;;;8.40;1.77;;;10.50;99.90;;;;;;5069605;28;20032;-57
2021/11/07 02:03:38;;;;;;;11.18;2.65;;;10.50;99.90;;;;;;5069634;28;20024;-60
2021/11/07 02:06:04;;;;;;;5.70;1.73;;;10.60;99.90;;;;;;5067004;28;20040;-56
2021/11/07 02:08:30;;;;;;;6.97;1.80;;;10.70;99.90;;;;;;5068699;28;20049;-58
2021/11/07 02:10:57;;;;;;;8.93;1.95;;;10.80;99.90;;;;;;5059972;28;20572;-58
2021/11/07 02:13:24;;;;;;;4.28;1.17;;;10.80;99.90;;;;;;5070279;28;20687;-54
2021/11/07 02:15:50;;;;;;;8.43;1.10;;;10.80;99.90;;;;;;5070721;28;20029;-60
2021/11/07 02:18:17;;;;;;;5.35;1.48;;;10.90;99.90;;;;;;5069687;28;20025;-57
2021/11/07 02:20:44;;;;;;;7.45;1.48;;;10.90;99.90;;;;;;5069394;28;20024;-53
2021/11/07 02:23:14;;;;;;;12.50;1.30;;;10.90;99.90;;;;;;5065926;28;20029;-57
2021/11/07 02:25:42;;;;;;;3.40;1.13;;;11.00;99.90;;;;;;5066646;28;20016;-55
2021/11/07 02:28:09;;;;;;;1.73;0.90;;;11.00;99.90;;;;;;5062541;28;20390;-54
2021/11/07 02:30:38;;;;;;;1.80;1.00;;;11.00;99.90;;;;;;5069987;28;20017;-60
2021/11/07 02:33:05;;;;;;;7.93;1.30;;;11.00;99.90;;;;;;5067245;28;20029;-57
2021/11/07 02:35:31;;;;;;;2.50;1.15;;;11.00;99.90;;;;;;5069440;28;20029;-57
2021/11/07 02:37:57;;;;;;;7.70;1.92;;;11.00;99.90;;;;;;5071146;28;20115;-57
2021/11/07 02:40:24;;;;;;;1.55;0.73;;;11.00;99.90;;;;;;5067581;28;20032;-59
2021/11/07 02:42:51;;;;;;;3.08;0.82;;;11.00;99.90;;;;;;5069826;28;20035;-58
2021/11/07 02:45:19;;;;;;;1.67;0.90;;;11.00;99.90;;;;;;5070655;28;20017;-58
2021/11/07 02:47:46;;;;;;;5.82;1.25;;;11.00;99.90;;;;;;5069700;28;20017;-57
2021/11/07 02:50:14;;;;;;;1.85;0.70;;;11.00;99.90;;;;;;5070674;28;20501;-60
2021/11/07 02:52:40;;;;;;;1.27;0.80;;;10.90;99.90;;;;;;5069629;28;20056;-60
2021/11/07 02:55:07;;;;;;;3.47;0.85;;;11.00;99.90;;;;;;5067584;28;20032;-58
2021/11/07 02:57:33;;;;;;;1.70;1.20;;;10.90;99.90;;;;;;5066606;28;20544;-58
2021/11/07 02:59:59;;;;;;;3.13;0.90;;;10.90;99.90;;;;;;5070450;28;20040;-59
2021/11/07 03:02:27;;;;;;;1.02;0.80;;;10.80;99.90;;;;;;5068948;28;20024;-58
2021/11/07 03:04:53;;;;;;;0.80;0.80;;;10.80;99.90;;;;;;5067140;28;20028;-59
2021/11/07 03:07:21;;;;;;;2.28;1.10;;;10.80;99.90;;;;;;5061101;28;20032;-58
2021/11/07 03:09:47;;;;;;;3.17;1.00;;;10.80;99.90;;;;;;5064376;28;20437;-58
2021/11/07 03:12:13;;;;;;;1.02;0.93;;;10.90;99.90;;;;;;5069976;28;20025;-58
2021/11/07 03:14:46;;;;;;;2.63;1.48;;;10.90;99.90;;;;;;5064077;28;20501;-60
2021/11/07 03:17:13;;;;;;;4.38;0.70;;;10.90;99.90;;;;;;5064758;28;20074;-57
2021/11/07 03:19:39;;;;;;;1.38;0.80;;;10.90;99.90;;;;;;5064315;28;20036;-56
2021/11/07 03:22:09;;;;;;;3.80;1.17;;;10.90;99.90;;;;;;5068759;28;20028;-59
2021/11/07 03:24:36;;;;;;;1.65;0.98;;;10.90;99.90;;;;;;5069589;28;20028;-57
2021/11/07 03:27:11;;;;;;;1.38;0.75;;;10.90;99.90;;;;;;5068022;28;20032;-57
2021/11/07 03:29:38;;;;;;;3.13;1.08;;;10.90;99.90;;;;;;5066221;28;20550;-56
2021/11/07 03:32:39;;;;;;;12.05;1.52;;;10.90;99.90;;;;;;5066571;28;20021;-60
2021/11/07 03:35:02;;;;;;;3.83;1.20;;;10.90;99.90;;;;;;5079788;23;20075;-61
2021/11/07 03:37:30;;;;;;;1.65;1.00;;;10.90;99.90;;;;;;5048428;28;20664;-61
2021/11/07 03:39:58;;;;;;;1.80;0.93;;;10.90;99.90;;;;;;5052171;28;20045;-61
2021/11/07 03:42:25;;;;;;;7.30;0.88;;;10.90;99.90;;;;;;5052154;28;20013;-62
2021/11/07 03:44:51;;;;;;;1.67;1.00;;;11.00;99.90;;;;;;5050601;28;20052;-62
2021/11/07 03:47:17;;;;;;;1.55;0.93;;;11.00;99.90;;;;;;5070239;28;20155;-62
2021/11/07 03:49:43;;;;;;;1.42;0.82;;;11.00;99.90;;;;;;5072012;28;20530;-63
2021/11/07 03:52:10;;;;;;;3.08;1.00;;;11.00;99.90;;;;;;5068464;28;20025;-61
2021/11/07 03:54:37;;;;;;;1.70;1.10;;;11.00;99.90;;;;;;5070118;28;20478;-61
2021/11/07 03:57:03;;;;;;;4.50;0.95;;;11.00;99.90;;;;;;5070938;28;20419;-61
2021/11/07 03:59:30;;;;;;;0.90;0.75;;;11.10;99.90;;;;;;5071117;28;20508;-61
2021/11/07 04:01:56;;;;;;;5.05;1.00;;;11.10;99.90;;;;;;5070568;28;20797;-62
2021/11/07 04:04:23;;;;;;;1.80;0.80;;;11.10;99.90;;;;;;5071361;28;20099;-62
2021/11/07 04:06:50;;;;;;;2.35;0.98;;;11.10;99.90;;;;;;5065331;28;20029;-63
2021/11/07 04:09:16;;;;;;;1.00;0.68;;;11.10;99.90;;;;;;5069938;28;20082;-61
2021/11/07 04:11:42;;;;;;;1.08;0.70;;;11.10;99.90;;;;;;5070611;28;20437;-61
2021/11/07 04:14:10;;;;;;;1.65;0.70;;;11.20;99.90;;;;;;5071033;28;20024;-62
2021/11/07 04:16:37;;;;;;;2.55;0.70;;;11.20;99.90;;;;;;5070306;28;20774;-63
2021/11/07 04:19:03;;;;;;;1.15;0.80;;;11.20;99.90;;;;;;5071631;28;20471;-61
2021/11/07 04:21:29;;;;;;;1.42;0.73;;;11.20;99.90;;;;;;5069506;28;20032;-62
2021/11/07 04:23:55;;;;;;;6.97;1.70;;;11.20;99.90;;;;;;5069902;28;20024;-61
2021/11/07 04:26:22;;;;;;;2.85;0.98;;;11.20;99.90;;;;;;5066511;28;20025;-60
2021/11/07 04:28:48;;;;;;;3.10;0.68;;;11.20;99.90;;;;;;5070703;28;20028;-61
2021/11/07 04:31:14;;;;;;;1.25;0.90;;;11.30;99.90;;;;;;5069377;28;20017;-62
2021/11/07 04:33:40;;;;;;;1.15;0.60;;;11.20;99.90;;;;;;5058139;28;20713;-62
2021/11/07 04:36:06;;;;;;;1.58;0.60;;;11.30;99.90;;;;;;5069714;28;20044;-62
2021/11/07 04:38:34;;;;;;;2.97;1.10;;;11.20;99.90;;;;;;5069185;28;20025;-62
2021/11/07 04:41:00;;;;;;;2.05;0.93;;;11.20;99.90;;;;;;5067387;28;20056;-62
2021/11/07 04:43:26;;;;;;;1.48;1.00;;;11.20;99.90;;;;;;5068719;28;20025;-62
2021/11/07 04:45:52;;;;;;;2.97;1.00;;;11.20;99.90;;;;;;5070126;28;20103;-61
2021/11/07 04:48:19;;;;;;;1.05;0.95;;;11.20;99.90;;;;;;5068876;28;20107;-62
2021/11/07 04:50:46;;;;;;;2.22;1.50;;;11.20;99.90;;;;;;5047692;28;20028;-61
2021/11/07 04:53:13;;;;;;;4.13;1.95;;;11.20;99.90;;;;;;5068909;28;20028;-62
2021/11/07 04:55:41;;;;;;;1.50;1.33;;;11.20;99.90;;;;;;5068342;28;20032;-62
2021/11/07 04:58:08;;;;;;;2.85;1.50;;;11.30;99.90;;;;;;5068271;28;20142;-62
2021/11/07 05:00:35;;;;;;;3.72;1.55;;;11.30;99.90;;;;;;5065012;28;20030;-62
2021/11/07 05:03:05;;;;;;;4.15;2.00;;;11.30;99.90;;;;;;5070308;28;20487;-61
2021/11/07 05:05:33;;;;;;;2.70;1.75;;;11.30;99.90;;;;;;5068817;28;20028;-61
2021/11/07 05:07:59;;;;;;;2.30;1.58;;;11.30;99.90;;;;;;5056048;28;20402;-62
2021/11/07 05:10:26;;;;;;;3.38;1.50;;;11.30;99.90;;;;;;5060540;28;20021;-62
2021/11/07 05:12:52;;;;;;;2.63;1.50;;;11.30;99.90;;;;;;5066951;28;20032;-62
2021/11/07 05:15:17;;;;;;;2.10;1.25;;;11.30;99.90;;;;;;5067786;28;20024;-62
2021/11/07 05:17:43;;;;;;;6.50;1.60;;;11.30;99.90;;;;;;5056998;28;20100;-62
2021/11/07 05:20:09;;;;;;;5.95;1.80;;;11.30;99.90;;;;;;5069351;28;20036;-62
2021/11/07 05:22:36;;;;;;;7.03;2.00;;;11.30;99.90;;;;;;5070864;28;20039;-63
2021/11/07 05:25:03;;;;;;;3.38;1.83;;;11.20;99.90;;;;;;5069095;28;20418;-62
2021/11/07 05:27:29;;;;;;;2.30;1.83;;;11.30;99.90;;;;;;5068629;28;20111;-62
2021/11/07 05:29:54;;;;;;;3.78;2.38;;;11.30;99.90;;;;;;5067888;28;20440;-62
2021/11/07 05:32:20;;;;;;;4.72;1.98;;;11.20;99.90;;;;;;5066632;28;20375;-61
2021/11/07 05:34:46;;;;;;;10.40;2.08;;;11.30;99.90;;;;;;5066107;28;20040;-63
2021/11/07 05:37:13;;;;;;;2.95;2.30;;;11.30;99.90;;;;;;5065396;28;20020;-60
2021/11/07 05:39:40;;;;;;;2.70;2.05;;;11.30;99.90;;;;;;5067277;28;20027;-63
2021/11/07 05:42:06;;;;;;;4.07;2.22;;;11.30;99.90;;;;;;5065253;28;20047;-62
2021/11/07 05:44:31;;;;;;;4.70;2.20;;;11.30;99.90;;;;;;5068514;28;20024;-62
2021/11/07 05:46:57;;;;;;;6.75;2.33;;;11.30;99.90;;;;;;5060851;28;20097;-62
2021/11/07 05:49:23;;;;;;;3.67;1.95;;;11.20;99.90;;;;;;5069910;28;20120;-62
2021/11/07 05:51:50;;;;;;;3.92;2.63;;;11.30;99.90;;;;;;5068658;28;20051;-61
2021/11/07 05:54:15;;;;;;;4.40;2.25;;;11.30;99.90;;;;;;5068803;28;20060;-61
2021/11/07 05:56:41;;;;;;;4.20;2.80;;;11.30;99.90;;;;;;5066730;28;20517;-62
2021/11/07 05:59:07;;;;;;;4.10;3.15;;;11.30;99.90;;;;;;5063506;28;20076;-62
2021/11/07 06:01:35;;;;;;;5.22;3.45;;;11.30;99.90;;;;;;5068763;28;20032;-61
2021/11/07 06:04:02;;;;;;;4.85;2.42;;;11.30;99.90;;;;;;5065554;28;20032;-61
2021/11/07 06:06:27;;;;;;;7.72;2.95;;;11.30;99.90;;;;;;5063279;28;20017;-60
2021/11/07 06:08:53;;;;;;;4.72;2.90;;;11.30;99.90;;;;;;5060654;28;20535;-62
2021/11/07 06:11:20;;;;;;;4.25;2.80;;;11.20;99.90;;;;;;5065882;28;20545;-62
2021/11/07 06:13:45;;;;;;;8.70;3.15;;;11.30;99.90;;;;;;5068569;28;20028;-62
2021/11/07 06:16:11;;;;;;;3.67;3.22;;;11.30;99.90;;;;;;5066790;28;20077;-61
2021/11/07 06:18:37;;;;;;;4.32;3.00;;;11.30;99.90;;;;;;5063547;28;20029;-61
2021/11/07 06:21:02;;;;;;;5.05;3.22;;;11.30;99.90;;;;;;5066535;28;20060;-60
2021/11/07 06:23:28;;;;;;;4.55;3.35;;;11.30;99.90;;;;;;5064104;28;20122;-60
2021/11/07 06:25:54;;;;;;;7.15;3.33;;;11.30;99.90;;;;;;5065694;28;20025;-61
2021/11/07 06:28:21;;;;;;;8.13;3.28;;;11.30;99.90;;;;;;5069487;28;20025;-61
2021/11/07 06:30:48;;;;;;;4.32;3.15;;;11.30;99.90;;;;;;5068833;28;20021;-61
2021/11/07 06:33:15;;;;;;;4.93;3.20;;;11.20;99.90;;;;;;5065339;28;20490;-61
2021/11/07 06:35:41;;;;;;;6.18;3.08;;;11.20;99.90;;;;;;5067929;28;20564;-60
2021/11/07 06:38:06;;;;;;;6.22;3.10;;;11.30;99.90;;;;;;5069365;28;20082;-61
2021/11/07 06:40:33;;;;;;;9.98;3.03;;;11.30;99.90;;;;;;5066162;28;20078;-61
2021/11/07 06:42:59;;;;;;;8.25;3.00;;;11.30;99.90;;;;;;5066396;28;20028;-61
2021/11/07 06:45:24;;;;;;;4.28;2.92;;;11.30;99.90;;;;;;5066348;28;20020;-62
2021/11/07 06:47:50;;;;;;;5.95;3.30;;;11.30;99.90;;;;;;5064777;28;20035;-62
2021/11/07 06:50:16;;;;;;;7.07;3.40;;;11.20;99.90;;;;;;5063775;28;20090;-62
2021/11/07 06:52:43;;;;;;;5.93;3.90;;;11.20;99.90;;;;;;5048800;28;20044;-62
2021/11/07 06:55:11;;;;;;;4.28;2.63;;;11.30;99.90;;;;;;5067787;28;20020;-62
2021/11/07 06:57:37;;;;;;;3.67;2.15;;;11.30;99.90;;;;;;5067825;28;20029;-62
2021/11/07 07:00:16;;;;;;;3.42;2.60;;;11.30;99.90;;;;;;5064863;28;20016;-60
2021/11/07 07:02:42;;;;;;;5.80;2.67;;;11.30;99.90;;;;;;5065540;28;20111;-61
2021/11/07 07:05:09;;;;;;;4.47;2.65;;;11.30;99.90;;;;;;5067212;28;20028;-61
2021/11/07 07:07:37;;;;;;;4.40;2.97;;;11.30;99.90;;;;;;5070257;28;20041;-61
2021/11/07 07:10:10;;;;;;;6.22;3.28;;;11.30;99.90;;;;;;5057663;28;20021;-60
2021/11/07 07:12:46;;;;;;;4.78;2.60;;;11.30;99.90;;;;;;5067334;28;20021;-62
2021/11/07 07:23:25;;;;;;;6.20;4.00;;;11.40;99.90;;;;;;5032732;28;20048;-61
2021/11/07 07:31:26;;;;;;;7.68;4.07;;;11.40;99.90;;;;;;5068176;28;20483;-60
2021/11/07 07:34:10;;;;;;;14.07;4.88;;;11.50;99.90;;;;;;5059659;28;20029;-61
2021/11/07 07:36:36;;;;;;;10.10;4.32;;;11.40;99.90;;;;;;5067123;28;20031;-60
2021/11/07 07:39:03;;;;;;;7.97;4.18;;;11.40;99.90;;;;;;5061913;28;20544;-63
2021/11/07 07:41:29;;;;;;;10.63;4.93;;;11.30;99.90;;;;;;5050586;28;20073;-61
2021/11/07 07:43:56;;;;;;;8.98;6.43;;;11.20;99.90;;;;;;5069255;28;20181;-62
2021/11/07 07:46:22;;;;;;;13.32;7.60;;;11.00;99.90;;;;;;5069640;28;20035;-61
2021/11/07 07:48:48;;;;;;;10.05;7.15;;;10.90;99.90;;;;;;5060455;28;20072;-62
2021/11/07 07:51:17;;;;;;;11.43;7.13;;;10.90;99.90;;;;;;5068630;28;20024;-61
2021/11/07 07:53:44;;;;;;;15.18;8.98;;;10.90;99.90;;;;;;5051539;28;20021;-61
2021/11/07 07:56:11;;;;;;;15.85;9.02;;;10.80;99.90;;;;;;5063802;28;20104;-61
2021/11/07 07:58:38;;;;;;;13.63;9.45;;;10.80;99.90;;;;;;5064966;28;20041;-62
2021/11/07 08:01:05;;;;;;;15.80;9.98;;;10.80;99.90;;;;;;5068196;28;20035;-61
2021/11/07 08:03:31;;;;;;;13.85;9.63;;;10.80;99.90;;;;;;5069840;28;20052;-61
2021/11/07 08:05:57;;;;;;;15.48;9.85;;;10.80;99.90;;;;;;5070301;28;20072;-61
2021/11/07 08:08:22;;;;;;;15.13;8.95;;;10.80;99.90;;;;;;5062312;28;20108;-62
2021/11/07 08:10:48;;;;;;;10.85;7.60;;;10.80;99.90;;;;;;5070325;28;20024;-62
2021/11/07 08:13:14;;;;;;;12.77;7.75;;;10.90;99.90;;;;;;5068965;28;20035;-62
2021/11/07 08:15:40;;;;;;;11.18;8.60;;;10.90;99.90;;;;;;5070110;28;20032;-62
2021/11/07 08:18:05;;;;;;;13.50;7.57;;;10.90;99.90;;;;;;5064742;28;20112;-62
2021/11/07 08:20:31;;;;;;;13.32;8.05;;;10.90;99.90;;;;;;5067873;28;20029;-62
2021/11/07 08:22:57;;;;;;;13.07;6.10;;;10.90;99.90;;;;;;5070216;28;20032;-61
2021/11/07 08:25:24;;;;;;;8.98;6.13;;;11.00;99.90;;;;;;5069755;28;20032;-61
2021/11/07 08:27:56;;;;;;;14.57;6.68;;;11.00;99.90;;;;;;5063529;28;20047;-63
2021/11/07 08:30:24;;;;;;;7.68;5.82;;;11.00;99.90;;;;;;5066254;28;20024;-62
2021/11/07 08:32:50;;;;;;;15.73;6.45;;;11.00;99.90;;;;;;5066896;28;20104;-63
2021/11/07 08:35:16;;;;;;;13.80;6.55;;;11.00;99.90;;;;;;5068192;28;20266;-62
2021/11/07 08:37:52;;;;;;;11.07;6.70;;;11.00;99.90;;;;;;5053820;28;20064;-62
2021/11/07 08:40:27;;;;;;;15.80;6.72;;;11.10;99.90;;;;;;5069341;28;20028;-62
2021/11/07 08:43:03;;;;;;;13.40;6.50;;;11.20;99.90;;;;;;5069661;28;20028;-61
2021/11/07 09:04:26;;;;;;;17.85;7.90;;;11.20;99.90;;;;;;5065215;28;20028;-61
2021/11/07 09:09:24;;;;;;;12.32;7.28;;;11.30;99.90;;;;;;5070276;28;20021;-62
2021/11/07 09:11:53;;;;;;;13.55;6.72;;;11.40;99.90;;;;;;5071569;28;20033;-62
2021/11/07 09:14:28;;;;;;;15.48;7.47;;;11.30;99.90;;;;;;5071131;28;20024;-62
2021/11/07 09:16:54;;;;;;;22.23;7.75;;;11.30;99.90;;;;;;5069511;28;20051;-63
2021/11/07 09:19:23;;;;;;;17.75;7.38;;;11.30;99.90;;;;;;5070396;28;20478;-62
2021/11/07 09:22:00;;;;;;;14.20;6.97;;;11.40;99.90;;;;;;5071116;28;20165;-62
2021/11/07 09:24:34;;;;;;;19.65;7.65;;;11.40;99.90;;;;;;5070047;28;20475;-62
2021/11/07 09:27:06;;;;;;;21.73;7.20;;;11.40;99.90;;;;;;5068824;28;20466;-62
2021/11/07 09:30:23;;;;;;;21.33;6.72;;;11.40;99.90;;;;;;5070192;28;20028;-62
2021/11/07 09:35:27;;;;;;;21.50;6.57;;;11.50;99.90;;;;;;4988076;28;20412;-62
2021/11/07 09:37:58;;;;;;;17.92;5.43;;;11.50;99.90;;;;;;5083903;22;20540;-62
2021/11/07 09:40:26;;;;;;;17.05;5.10;;;11.50;99.90;;;;;;5087385;28;20427;-60
2021/11/07 09:43:10;;;;;;;13.32;4.70;;;11.50;99.90;;;;;;5084748;28;20428;-62
2021/11/07 09:48:21;;;;;;;18.98;5.63;;;11.60;99.90;;;;;;5073712;28;20036;-62
2021/11/07 09:50:48;;;;;;;17.95;4.43;;;11.60;99.90;;;;;;5065094;28;20032;-62
2021/11/07 09:53:15;;;;;;;14.55;4.75;;;11.70;99.90;;;;;;5067444;28;20024;-62
2021/11/07 09:55:41;;;;;;;28.10;5.28;;;11.80;99.90;;;;;;5068001;28;20117;-62
2021/11/07 09:58:07;;;;;;;21.90;4.32;;;11.80;99.90;;;;;;5066307;28;20029;-62
2021/11/07 10:00:42;;;;;;;23.00;4.75;;;11.80;99.90;;;;;;5067930;28;20090;-62
2021/11/07 10:03:10;;;;;;;27.58;4.85;;;11.90;99.90;;;;;;5066052;28;20024;-62
2021/11/07 10:05:42;;;;;;;17.05;4.63;;;11.90;99.90;;;;;;5064725;28;20052;-62
2021/11/07 10:08:10;;;;;;;16.88;3.70;;;12.00;99.90;;;;;;5067921;28;20035;-63
2021/11/07 10:10:39;;;;;;;20.10;5.07;;;12.00;99.90;;;;;;5070808;28;20074;-62
2021/11/07 10:13:13;;;;;;;17.55;4.25;;;12.20;99.90;;;;;;5066725;28;20706;-62
2021/11/07 10:15:48;;;;;;;24.67;4.38;;;12.30;99.90;;;;;;5070136;28;20386;-61
2021/11/07 10:18:42;;;;;;;19.08;3.17;;;12.40;99.90;;;;;;5064573;28;20027;-60
2021/11/07 10:21:14;;;;;;;15.45;4.38;;;12.50;99.90;;;;;;5068010;28;20451;-62
2021/11/07 10:23:44;;;;;;;20.70;4.60;;;12.40;99.90;;;;;;5072905;28;20030;-61
2021/11/07 10:26:21;;;;;;;19.45;6.07;;;12.30;99.90;;;;;;5059626;28;20024;-61
2021/11/07 10:28:52;;;;;;;22.92;4.10;;;12.30;99.90;;;;;;5056092;28;20016;-60
2021/11/07 10:31:27;;;;;;;15.77;3.67;;;12.20;99.90;;;;;;5055768;28;20039;-59
2021/11/07 10:37:21;;;;;;;17.15;3.78;;;12.30;99.90;;;;;;5054919;28;19916;-59
2021/11/07 10:42:59;;;;;;;26.90;5.30;;;12.20;99.90;;;;;;5054370;28;20074;-61
2021/11/07 10:53:14;;;;;;;25.15;5.05;;;12.20;99.90;;;;;;5054763;28;20036;-63
2021/11/07 10:55:43;;;;;;;29.65;4.97;;;12.20;99.90;;;;;;5054739;28;20036;-63
2021/11/07 10:58:09;;;;;;;19.88;4.25;;;12.20;99.90;;;;;;5055291;28;20036;-63
2021/11/07 11:00:36;;;;;;;22.42;4.38;;;12.20;99.90;;;;;;5056102;28;20100;-60
2021/11/07 11:03:08;;;;;;;23.23;4.68;;;12.20;99.90;;;;;;5055080;28;20601;-64
2021/11/07 11:05:53;;;;;;;27.08;4.47;;;12.10;99.90;;;;;;5054918;28;20029;-63
2021/11/07 11:08:27;;;;;;;17.48;4.07;;;12.10;99.90;;;;;;5055726;28;20036;-62
2021/11/07 11:11:04;;;;;;;17.13;3.58;;;12.10;99.90;;;;;;5058434;28;20562;-60
2021/11/07 11:28:07;;;;;;;24.13;3.72;;;11.70;99.90;;;;;;5056901;28;20099;-58
2021/11/07 11:36:08;;;;;;;24.10;5.10;;;11.60;99.90;;;;;;5054904;28;20136;-61
2021/11/07 11:38:42;;;;;;;26.60;3.33;;;11.60;99.90;;;;;;5055593;28;20044;-62
2021/11/07 11:41:13;;;;;;;25.08;3.85;;;11.60;99.90;;;;;;5055322;28;20040;-61
2021/11/07 11:43:50;;;;;;;25.80;6.40;;;11.60;99.90;;;;;;5053649;28;20048;-61
2021/11/07 11:46:38;;;;;;;16.45;4.65;;;11.70;99.90;;;;;;5055919;28;20472;-61
2021/11/07 11:51:51;;;;;;;27.80;4.35;;;11.70;99.90;;;;;;5056056;28;20037;-60
2021/11/07 11:57:57;;;;;;;17.27;3.53;;;11.80;99.90;;;;;;5058768;28;20302;-61
2021/11/07 12:00:42;;;;;;;19.30;2.88;;;12.00;99.90;;;;;;5057124;28;20560;-61
2021/11/07 12:08:19;;;;;;;14.00;3.20;;;12.50;99.90;;;;;;5056954;28;20364;-61
2021/11/07 12:13:42;;;;;;;23.38;3.58;;;12.40;99.90;;;;;;5056057;28;20699;-62
2021/11/07 12:16:17;;;;;;;24.58;4.03;;;12.30;99.90;;;;;;5057340;28;20040;-61
2021/11/07 12:19:09;;;;;;;22.02;3.50;;;12.20;99.90;;;;;;5058018;28;20029;-63
2021/11/07 12:21:47;;;;;;;24.85;3.63;;;12.10;99.90;;;;;;5056519;28;20152;-62
2021/11/07 12:24:13;;;;;;;16.42;3.33;;;12.10;99.90;;;;;;5056946;28;20517;-62
2021/11/07 12:26:39;;;;;;;12.27;2.72;;;12.00;99.90;;;;;;5056138;28;20039;-61
2021/11/07 12:29:05;;;;;;;21.13;3.22;;;12.00;99.90;;;;;;5057151;28;20025;-64
2021/11/07 12:31:32;;;;;;;15.85;3.10;;;12.00;99.90;;;;;;5058890;28;20074;-62
2021/11/07 12:34:16;;;;;;;17.15;3.10;;;11.90;99.90;;;;;;5058436;28;20032;-59
2021/11/07 12:42:24;;;;;;;15.48;3.45;;;11.70;99.90;;;;;;5057470;28;20124;-62
2021/11/07 12:44:53;;;;;;;21.45;4.45;;;11.80;99.90;;;;;;5054941;28;20099;-60
2021/11/07 12:47:25;;;;;;;20.08;4.10;;;11.80;99.90;;;;;;5057821;28;20032;-59
2021/11/07 12:49:57;;;;;;;21.48;4.38;;;11.90;99.90;;;;;;5058139;28;20381;-61
2021/11/07 12:52:23;;;;;;;25.25;4.50;;;12.00;99.90;;;;;;5058202;28;20029;-61
2021/11/07 12:54:48;;;;;;;27.25;4.35;;;12.00;99.90;;;;;;5058000;28;20043;-59
2021/11/07 12:57:21;;;;;;;20.40;4.57;;;12.20;99.90;;;;;;5057239;28;20075;-62
2021/11/07 12:59:51;;;;;;;22.83;3.78;;;12.20;99.90;;;;;;5057567;28;20467;-62
2021/11/07 13:02:28;;;;;;;25.58;4.15;;;12.20;99.90;;;;;;5055889;28;20573;-61
2021/11/07 13:07:49;;;;;;;30.70;4.47;;;12.30;99.90;;;;;;5057702;28;20028;-60
2021/11/07 13:10:51;;;;;;;29.30;3.92;;;12.30;99.90;;;;;;5055549;28;20036;-61
2021/11/07 13:13:30;;;;;;;19.23;3.40;;;12.40;99.90;;;;;;5056395;28;20024;-62
2021/11/07 13:26:54;;;;;;;21.48;3.10;;;12.50;99.90;;;;;;5057823;28;20021;-61
2021/11/07 13:34:34;;;;;;;20.20;3.25;;;12.40;99.90;;;;;;5057856;28;20031;-62
2021/11/07 13:37:03;;;;;;;24.65;4.50;;;12.40;99.90;;;;;;5057018;28;20044;-63
2021/11/07 13:39:36;;;;;;;28.83;3.65;;;12.40;99.90;;;;;;5057708;28;20055;-63
2021/11/07 13:42:12;;;;;;;18.10;3.97;;;12.30;99.90;;;;;;5059263;28;20090;-61
2021/11/07 13:44:56;;;;;;;20.08;4.28;;;12.30;99.90;;;;;;5056336;28;20426;-61
2021/11/07 13:47:41;;;;;;;25.27;4.18;;;12.10;99.90;;;;;;5056852;28;20120;-62
2021/11/07 13:50:11;;;;;;;31.38;4.32;;;12.10;99.90;;;;;;5059093;28;20032;-62
2021/11/07 13:52:39;;;;;;;26.52;4.45;;;12.00;99.90;;;;;;5058103;28;20601;-59
2021/11/07 13:55:35;;;;;;;31.85;4.60;;;12.00;99.90;;;;;;5056944;28;20032;-62
2021/11/07 13:58:22;;;;;;;21.85;4.07;;;12.00;99.90;;;;;;5058735;28;20032;-60
2021/11/07 14:00:51;;;;;;;17.70;4.43;;;12.00;99.90;;;;;;5059271;28;20033;-61
2021/11/07 14:03:19;;;;;;;28.85;3.88;;;12.10;99.90;;;;;;5057180;28;20037;-56
2021/11/07 14:05:58;;;;;;;29.92;3.78;;;12.10;99.90;;;;;;5057784;28;20028;-63
2021/11/07 14:08:24;;;;;;;17.27;3.83;;;12.10;99.90;;;;;;5057669;28;20524;-61
2021/11/07 14:10:50;;;;;;;28.85;5.35;;;12.00;99.90;;;;;;5057951;28;20051;-62
2021/11/07 14:13:16;;;;;;;17.35;4.32;;;12.00;99.90;;;;;;5057334;28;20033;-61
2021/11/07 14:15:48;;;;;;;24.17;4.00;;;12.00;99.90;;;;;;5056491;28;20117;-61
2021/11/07 14:18:28;;;;;;;25.80;3.80;;;12.00;99.90;;;;;;5056535;28;20033;-62
2021/11/07 14:21:02;;;;;;;38.30;4.90;;;12.00;99.90;;;;;;5056909;28;20025;-61
2021/11/07 14:23:39;;;;;;;20.70;4.13;;;12.00;99.90;;;;;;5056799;28;20052;-61
2021/11/07 14:26:09;;;;;;;22.33;3.50;;;11.90;99.90;;;;;;5057715;28;20491;-56
2021/11/07 14:34:38;;;;;;;23.55;3.90;;;11.80;99.90;;;;;;5057284;28;20048;-60
2021/11/07 14:42:35;;;;;;;24.02;4.60;;;11.70;99.90;;;;;;5061175;28;20044;-63
2021/11/07 14:45:37;;;;;;;19.45;4.10;;;11.70;99.90;;;;;;5061004;28;20025;-62
2021/11/07 14:48:48;;;;;;;23.40;3.38;;;11.60;99.90;;;;;;5062432;28;20063;-60
2021/11/07 15:02:09;;;;;;;27.52;4.00;;;11.40;99.90;;;;;;5052466;28;20121;-60
2021/11/07 15:04:47;;;;;;;21.77;3.88;;;11.30;99.90;;;;;;5061011;28;20700;-60
2021/11/07 15:07:15;;;;;;;25.10;3.20;;;11.30;99.90;;;;;;5061694;28;20413;-59
2021/11/07 15:18:12;;;;;;;25.50;3.60;;;11.20;99.90;;;;;;5063419;28;20375;-59
2021/11/07 15:20:48;;;;;;;27.80;3.78;;;11.20;99.90;;;;;;5075075;28;20486;-59
2021/11/07 15:23:31;;;;;;;35.00;4.10;;;11.10;99.90;;;;;;5076663;28;20560;-60
2021/11/07 15:25:56;;;;;;;23.90;3.15;;;11.10;99.90;;;;;;5079752;28;20032;-61
2021/11/07 15:28:27;;;;;;;18.10;3.78;;;11.00;99.90;;;;;;5081037;28;20435;-57
2021/11/07 15:30:53;;;;;;;28.35;3.78;;;11.10;99.90;;;;;;5084300;28;20108;-59
2021/11/07 15:33:19;;;;;;;20.98;3.15;;;11.00;99.90;;;;;;5081377;28;20115;-61
2021/11/07 15:35:47;;;;;;;17.70;3.05;;;11.00;99.90;;;;;;5084495;28;20027;-62
2021/11/07 15:38:19;;;;;;;21.00;3.40;;;11.00;99.90;;;;;;5098479;22;20043;-62
2021/11/07 15:40:45;;;;;;;26.42;4.55;;;11.00;99.90;;;;;;5075833;28;20020;-62
2021/11/07 15:43:13;;;;;;;24.42;3.58;;;11.00;99.90;;;;;;5080991;28;20042;-59
2021/11/07 15:45:56;;;;;;;26.98;5.07;;;10.90;99.90;;;;;;5072868;28;20556;-61
2021/11/07 15:48:25;;;;;;;26.52;5.63;;;10.90;99.90;;;;;;5078923;28;20031;-61